TimeCDT,TemperatureF,Dew PointF,Humidity,Sea Level PressureIn,VisibilityMPH,Wind Direction,Wind SpeedMPH,Gust SpeedMPH,PrecipitationIn,Events,Conditions,WindDirDegrees,DateUTC
12:13 AM,62.1,61.0,96,30.02,1.8,Calm,Calm,-,N/A,,Clear,0,2013-08-01 05:13:00
12:25 AM,62.1,61.0,96,30.01,4.0,Calm,Calm,-,N/A,,Clear,0,2013-08-01 05:25:00
12:53 AM,62.1,60.1,93,30.01,-9999.0,WSW,3.5,-,N/A,,Unknown,240,2013-08-01 05:53:00
1:53 AM,62.1,59.0,90,30.01,10.0,SW,4.6,-,N/A,,Partly Cloudy,220,2013-08-01 06:53:00
2:53 AM,61.0,57.0,87,30.01,10.0,SSW,5.8,-,N/A,,Clear,200,2013-08-01 07:53:00
3:53 AM,57.0,55.0,93,30.00,10.0,Calm,Calm,-,N/A,,Clear,0,2013-08-01 08:53:00
4:53 AM,57.0,55.0,93,30.00,10.0,WSW,3.5,-,N/A,,Clear,240,2013-08-01 09:53:00
5:53 AM,57.0,55.0,93,30.01,9.0,WSW,3.5,-,N/A,,Clear,240,2013-08-01 10:53:00
6:53 AM,59.0,57.0,93,30.03,10.0,Calm,Calm,-,N/A,,Unknown,0,2013-08-01 11:53:00
7:53 AM,64.0,57.9,80,30.04,10.0,WSW,3.5,-,N/A,,Clear,250,2013-08-01 12:53:00
8:53 AM,69.1,57.0,65,30.04,10.0,NW,8.1,-,N/A,,Clear,310,2013-08-01 13:53:00
9:53 AM,73.0,55.0,53,30.04,10.0,Variable,3.5,-,N/A,,Clear,0,2013-08-01 14:53:00
10:53 AM,75.9,54.0,46,30.04,10.0,WNW,8.1,-,N/A,,Clear,290,2013-08-01 15:53:00
11:53 AM,79.0,54.0,42,30.04,10.0,WNW,4.6,-,N/A,,Clear,300,2013-08-01 16:53:00
12:53 PM,80.1,54.0,40,30.03,10.0,Variable,6.9,17.3,N/A,,Clear,0,2013-08-01 17:53:00
1:53 PM,81.0,53.1,38,30.01,10.0,West,10.4,-,N/A,,Clear,280,2013-08-01 18:53:00
2:54 PM,81.0,52.0,36,30.00,10.0,West,8.1,-,N/A,,Unknown,260,2013-08-01 19:54:00
3:53 PM,81.0,53.1,38,29.98,10.0,SW,9.2,-,N/A,,Clear,230,2013-08-01 20:53:00
4:53 PM,81.0,53.1,38,29.96,10.0,Variable,5.8,-,N/A,,Unknown,0,2013-08-01 21:53:00
5:53 PM,79.0,54.0,42,29.96,10.0,SSW,4.6,-,N/A,,Mostly Cloudy,210,2013-08-01 22:53:00
6:53 PM,79.0,57.9,48,29.94,10.0,Calm,Calm,-,N/A,,Scattered Clouds,0,2013-08-01 23:53:00
7:53 PM,75.0,60.1,60,29.93,10.0,Calm,Calm,-,N/A,,Clear,0,2013-08-02 00:53:00
8:53 PM,69.1,62.1,78,29.93,10.0,Calm,Calm,-,N/A,,Unknown,0,2013-08-02 01:53:00
9:53 PM,68.0,63.0,84,29.91,10.0,Variable,3.5,-,0.00,Rain,Light Rain,0,2013-08-02 02:53:00
10:04 PM,66.9,63.0,87,29.93,2.0,Calm,Calm,-,0.08,Rain-Thunderstorm,Heavy Rain,0,2013-08-02 03:04:00
10:06 PM,66.9,63.0,87,29.93,1.0,Calm,Calm,-,0.18,Rain-Thunderstorm,Heavy Rain,0,2013-08-02 03:06:00
10:13 PM,64.9,64.0,97,29.91,0.8,ESE,6.9,-,0.24,Rain-Thunderstorm,Rain,120,2013-08-02 03:13:00
10:16 PM,66.0,63.0,90,29.91,1.5,ESE,6.9,-,0.24,Rain-Thunderstorm,Light Thunderstorms and Rain,110,2013-08-02 03:16:00
10:18 PM,66.0,63.0,90,29.91,4.0,ESE,5.8,-,0.24,Rain-Thunderstorm,Light Thunderstorms and Rain,120,2013-08-02 03:18:00
10:36 PM,68.0,63.0,84,29.93,10.0,North,6.9,18.4,0.24,Thunderstorm,Overcast,10,2013-08-02 03:36:00
10:53 PM,66.9,61.0,81,29.92,10.0,ESE,4.6,-,0.24,Thunderstorm,Overcast,110,2013-08-02 03:53:00
11:06 PM,66.0,62.1,87,29.92,10.0,Calm,Calm,-,N/A,,Mostly Cloudy,0,2013-08-02 04:06:00